Uraga Maru — JD2163 — position and weather

sailwx.info

Track history (hours):
 
Tides and Currents Weather Stations Pressure Air Temp Water Temp Dewpoint Dewpoint Depression Visibility Wind Speed Wind Dir Waves Ship Positions

Uraga Maru

Last reported at 2016-Sep-28 03:33 UTC. Time now 2016-Sep-28 05:09 UTC.
Position N 35°13' E 139°43'.

Length 40 m; draft 2.8 m.

Type: Tug. MMSI: 431101119.

Date/timePositionNaut miles runAvg speedWind from/ knotsBaromVisibWave heightAir tempDewpointWater temp
2016-Sep-28 03:33N 35°13' E 139°43'0 0.0
2016-Sep-28 02:33N 35°13' E 139°43'0 0.0
2016-Sep-28 01:33N 35°13' E 139°43'0 0.0
2016-Sep-27 23:33N 35°13' E 139°43'0 0.0
2016-Sep-27 19:33N 35°13' E 139°43'0 0.0
2016-Sep-27 14:33N 35°13' E 139°43'0 0.0
2016-Sep-27 13:33N 35°13' E 139°43'0 0.0
2016-Sep-27 10:33N 35°13' E 139°43'6 0.6
2016-Sep-27 00:33N 35°19' E 139°41'7 1.8
2016-Sep-26 20:34N 35°14' E 139°47'2 2.1
2016-Sep-26 19:32N 35°13' E 139°44'1 0.4
2016-Sep-26 15:34N 35°13' E 139°43'0 0.0
2016-Sep-26 13:33N 35°13' E 139°43'0 0.0
2016-Sep-26 11:34N 35°13' E 139°43'11 3.6
2016-Sep-26 08:33N 35°24' E 139°45'4 0.7
2016-Sep-26 02:33N 35°28' E 139°45'6 6.4
2016-Sep-26 01:33N 35°22' E 139°42'9 8.7
2016-Sep-26 00:33N 35°13' E 139°43'0 0.1
2016-Sep-25 21:32N 35°13' E 139°43'0 0.0
2016-Sep-25 17:33N 35°13' E 139°43'0 0.0
2016-Sep-25 16:34N 35°13' E 139°43'0 0.0
2016-Sep-25 15:34N 35°13' E 139°43'0 0.0
2016-Sep-25 14:32N 35°13' E 139°43'0 0.0
2016-Sep-25 12:34N 35°13' E 139°43'0 0.0
2016-Sep-25 11:34N 35°13' E 139°43'0 0.0
2016-Sep-25 10:33N 35°13' E 139°43'0 0.0
2016-Sep-25 09:33N 35°13' E 139°43'0 0.0
2016-Sep-25 07:33N 35°13' E 139°43'0 0.0
2016-Sep-25 04:33N 35°13' E 139°43'11 2.7
2016-Sep-25 00:33N 35°24' E 139°46'9 4.7
2016-Sep-24 22:33N 35°15' E 139°46'6 5.5
2016-Sep-24 21:33N 35°19' E 139°42'6 2.9
2016-Sep-24 19:34N 35°13' E 139°43'0 0.1
2016-Sep-24 18:33N 35°13' E 139°43'0 0.0
2016-Sep-24 17:33N 35°13' E 139°43'0 0.0
2016-Sep-24 16:33N 35°13' E 139°43'0 0.0
2016-Sep-24 14:33N 35°13' E 139°43'0 0.0
2016-Sep-24 12:33N 35°13' E 139°43'0 0.0
2016-Sep-24 10:33N 35°13' E 139°43'3 3.3
2016-Sep-24 09:33N 35°15' E 139°46'6 1.1
2016-Sep-24 03:33N 35°19' E 139°40'1 1.1
2016-Sep-24 02:33N 35°20' E 139°41'1 0.9
2016-Sep-24 01:33N 35°19' E 139°40'0 0.0
2016-Sep-24 00:33N 35°19' E 139°40'6 1.2
2016-Sep-23 19:33N 35°13' E 139°43'0 0.0
2016-Sep-23 17:33N 35°13' E 139°43'0 0.0
2016-Sep-23 16:33N 35°13' E 139°43'0 0.0
2016-Sep-23 15:33N 35°13' E 139°43'0 0.0
2016-Sep-23 13:33N 35°13' E 139°43'0 0.0
2016-Sep-23 09:33N 35°13' E 139°43'4 1.2
2016-Sep-23 06:33N 35°16' E 139°46'16 7.9
2016-Sep-23 04:33N 35°29' E 139°57'1 0.8
2016-Sep-23 03:33N 35°29' E 139°56'2 1.8
2016-Sep-23 02:33N 35°29' E 139°54'7 7.0
2016-Sep-23 01:34N 35°25' E 139°47'1010.0
2016-Sep-23 00:33N 35°15' E 139°47'3 3.1
2016-Sep-22 23:30N 35°13' E 139°43'0 0.2
2016-Sep-22 20:33N 35°13' E 139°43'0 0.0
2016-Sep-22 12:33N 35°13' E 139°43'0 0.0
2016-Sep-22 04:33N 35°13' E 139°43'0 0.0
2016-Sep-22 03:33N 35°13' E 139°43'10 3.3
2016-Sep-22 00:34N 35°22' E 139°48'2 1.9
2016-Sep-21 23:33N 35°20' E 139°49'3 3.4
2016-Sep-21 22:33N 35°22' E 139°46'9 3.0
2016-Sep-21 19:32N 35°13' E 139°43'0 0.0
2016-Sep-21 16:34N 35°13' E 139°43'4 0.6
2016-Sep-21 09:33N 35°11' E 139°47'9 8.4
2016-Sep-21 08:31N 35°19' E 139°43'8 2.9
2016-Sep-21 05:33N 35°27' E 139°42'0 0.0
2016-Sep-21 03:33N 35°27' E 139°42'1 1.2
2016-Sep-21 02:34N 35°26' E 139°43'13 1.4
2016-Sep-20 17:33N 35°13' E 139°43'0 0.0
2016-Sep-20 14:33N 35°13' E 139°43'0 0.0
2016-Sep-20 13:33N 35°13' E 139°43'0 0.0
2016-Sep-20 10:33N 35°13' E 139°43'0 0.0
2016-Sep-20 08:34N 35°13' E 139°43'0 0.0
2016-Sep-20 07:33N 35°13' E 139°43'0 0.0
2016-Sep-20 06:33N 35°13' E 139°43'0 0.0
2016-Sep-20 02:33N 35°13' E 139°43'0 0.0
2016-Sep-19 23:32N 35°13' E 139°43'5 1.2
2016-Sep-19 19:33N 35°10' E 139°47'5 5.1
2016-Sep-19 18:33N 35°13' E 139°43'0 0.0
2016-Sep-19 16:33N 35°13' E 139°43'0 0.0
2016-Sep-19 14:33N 35°13' E 139°43'0 0.0
2016-Sep-19 13:33N 35°13' E 139°43'0 0.0
2016-Sep-19 12:33N 35°13' E 139°43'2 1.5
2016-Sep-19 11:31N 35°13' E 139°45'4 2.3
2016-Sep-19 09:33N 35°17' E 139°44'4 2.1
2016-Sep-19 07:33N 35°13' E 139°43'0 0.0
2016-Sep-19 06:33N 35°13' E 139°43'0 0.0
2016-Sep-19 03:33N 35°13' E 139°43'0 0.0
2016-Sep-19 02:33N 35°13' E 139°43'0 0.0
2016-Sep-19 00:33N 35°13' E 139°43'0 0.0
2016-Sep-18 19:33N 35°13' E 139°43'0 0.0
2016-Sep-18 15:33N 35°13' E 139°43'0 0.0
2016-Sep-18 14:33N 35°13' E 139°43'0 0.0
2016-Sep-18 10:33N 35°13' E 139°43'0 0.0
2016-Sep-18 09:33N 35°13' E 139°43'  
Track history (hours):
 
Tides and Currents Weather Stations Pressure Air Temp Water Temp Dewpoint Dewpoint Depression Visibility Wind Speed Wind Dir Waves Ship Positions

Uraga Maru

Last reported at 2016-Sep-28 03:33 UTC. Time now 2016-Sep-28 05:09 UTC.
Position N 35°13' E 139°43'.

Length 40 m; draft 2.8 m.

Type: Tug. MMSI: 431101119.

Date/timePositionNaut miles runAvg speedWind from/ knotsBaromVisibWave heightAir tempDewpointWater temp
2016-Sep-28 03:33N 35°13' E 139°43'0 0.0
2016-Sep-28 02:33N 35°13' E 139°43'0 0.0
2016-Sep-28 01:33N 35°13' E 139°43'0 0.0
2016-Sep-27 23:33N 35°13' E 139°43'0 0.0
2016-Sep-27 19:33N 35°13' E 139°43'0 0.0
2016-Sep-27 14:33N 35°13' E 139°43'0 0.0
2016-Sep-27 13:33N 35°13' E 139°43'0 0.0
2016-Sep-27 10:33N 35°13' E 139°43'6 0.6
2016-Sep-27 00:33N 35°19' E 139°41'7 1.8
2016-Sep-26 20:34N 35°14' E 139°47'2 2.1
2016-Sep-26 19:32N 35°13' E 139°44'1 0.4
2016-Sep-26 15:34N 35°13' E 139°43'0 0.0
2016-Sep-26 13:33N 35°13' E 139°43'0 0.0
2016-Sep-26 11:34N 35°13' E 139°43'11 3.6
2016-Sep-26 08:33N 35°24' E 139°45'4 0.7
2016-Sep-26 02:33N 35°28' E 139°45'6 6.4
2016-Sep-26 01:33N 35°22' E 139°42'9 8.7
2016-Sep-26 00:33N 35°13' E 139°43'0 0.1
2016-Sep-25 21:32N 35°13' E 139°43'0 0.0
2016-Sep-25 17:33N 35°13' E 139°43'0 0.0
2016-Sep-25 16:34N 35°13' E 139°43'0 0.0
2016-Sep-25 15:34N 35°13' E 139°43'0 0.0
2016-Sep-25 14:32N 35°13' E 139°43'0 0.0
2016-Sep-25 12:34N 35°13' E 139°43'0 0.0
2016-Sep-25 11:34N 35°13' E 139°43'0 0.0
2016-Sep-25 10:33N 35°13' E 139°43'0 0.0
2016-Sep-25 09:33N 35°13' E 139°43'0 0.0
2016-Sep-25 07:33N 35°13' E 139°43'0 0.0
2016-Sep-25 04:33N 35°13' E 139°43'11 2.7
2016-Sep-25 00:33N 35°24' E 139°46'9 4.7
2016-Sep-24 22:33N 35°15' E 139°46'6 5.5
2016-Sep-24 21:33N 35°19' E 139°42'6 2.9
2016-Sep-24 19:34N 35°13' E 139°43'0 0.1
2016-Sep-24 18:33N 35°13' E 139°43'0 0.0
2016-Sep-24 17:33N 35°13' E 139°43'0 0.0
2016-Sep-24 16:33N 35°13' E 139°43'0 0.0
2016-Sep-24 14:33N 35°13' E 139°43'0 0.0
2016-Sep-24 12:33N 35°13' E 139°43'0 0.0
2016-Sep-24 10:33N 35°13' E 139°43'3 3.3
2016-Sep-24 09:33N 35°15' E 139°46'6 1.1
2016-Sep-24 03:33N 35°19' E 139°40'1 1.1
2016-Sep-24 02:33N 35°20' E 139°41'1 0.9
2016-Sep-24 01:33N 35°19' E 139°40'0 0.0
2016-Sep-24 00:33N 35°19' E 139°40'6 1.2
2016-Sep-23 19:33N 35°13' E 139°43'0 0.0
2016-Sep-23 17:33N 35°13' E 139°43'0 0.0
2016-Sep-23 16:33N 35°13' E 139°43'0 0.0
2016-Sep-23 15:33N 35°13' E 139°43'0 0.0
2016-Sep-23 13:33N 35°13' E 139°43'0 0.0
2016-Sep-23 09:33N 35°13' E 139°43'4 1.2
2016-Sep-23 06:33N 35°16' E 139°46'16 7.9
2016-Sep-23 04:33N 35°29' E 139°57'1 0.8
2016-Sep-23 03:33N 35°29' E 139°56'2 1.8
2016-Sep-23 02:33N 35°29' E 139°54'7 7.0
2016-Sep-23 01:34N 35°25' E 139°47'1010.0
2016-Sep-23 00:33N 35°15' E 139°47'3 3.1
2016-Sep-22 23:30N 35°13' E 139°43'0 0.2
2016-Sep-22 20:33N 35°13' E 139°43'0 0.0
2016-Sep-22 12:33N 35°13' E 139°43'0 0.0
2016-Sep-22 04:33N 35°13' E 139°43'0 0.0
2016-Sep-22 03:33N 35°13' E 139°43'10 3.3
2016-Sep-22 00:34N 35°22' E 139°48'2 1.9
2016-Sep-21 23:33N 35°20' E 139°49'3 3.4
2016-Sep-21 22:33N 35°22' E 139°46'9 3.0
2016-Sep-21 19:32N 35°13' E 139°43'0 0.0
2016-Sep-21 16:34N 35°13' E 139°43'4 0.6
2016-Sep-21 09:33N 35°11' E 139°47'9 8.4
2016-Sep-21 08:31N 35°19' E 139°43'8 2.9
2016-Sep-21 05:33N 35°27' E 139°42'0 0.0
2016-Sep-21 03:33N 35°27' E 139°42'1 1.2
2016-Sep-21 02:34N 35°26' E 139°43'13 1.4
2016-Sep-20 17:33N 35°13' E 139°43'0 0.0
2016-Sep-20 14:33N 35°13' E 139°43'0 0.0
2016-Sep-20 13:33N 35°13' E 139°43'0 0.0
2016-Sep-20 10:33N 35°13' E 139°43'0 0.0
2016-Sep-20 08:34N 35°13' E 139°43'0 0.0
2016-Sep-20 07:33N 35°13' E 139°43'0 0.0
2016-Sep-20 06:33N 35°13' E 139°43'0 0.0
2016-Sep-20 02:33N 35°13' E 139°43'0 0.0
2016-Sep-19 23:32N 35°13' E 139°43'5 1.2
2016-Sep-19 19:33N 35°10' E 139°47'5 5.1
2016-Sep-19 18:33N 35°13' E 139°43'0 0.0
2016-Sep-19 16:33N 35°13' E 139°43'0 0.0
2016-Sep-19 14:33N 35°13' E 139°43'0 0.0
2016-Sep-19 13:33N 35°13' E 139°43'0 0.0
2016-Sep-19 12:33N 35°13' E 139°43'2 1.5
2016-Sep-19 11:31N 35°13' E 139°45'4 2.3
2016-Sep-19 09:33N 35°17' E 139°44'4 2.1
2016-Sep-19 07:33N 35°13' E 139°43'0 0.0
2016-Sep-19 06:33N 35°13' E 139°43'0 0.0
2016-Sep-19 03:33N 35°13' E 139°43'0 0.0
2016-Sep-19 02:33N 35°13' E 139°43'0 0.0
2016-Sep-19 00:33N 35°13' E 139°43'0 0.0
2016-Sep-18 19:33N 35°13' E 139°43'0 0.0
2016-Sep-18 15:33N 35°13' E 139°43'0 0.0
2016-Sep-18 14:33N 35°13' E 139°43'0 0.0
2016-Sep-18 10:33N 35°13' E 139°43'0 0.0
2016-Sep-18 09:33N 35°13' E 139°43'  

Dump ship's entire track history